createdAt,value
2019-01-29T00:11:34.442Z,1.8
2019-01-29T00:28:08.120Z,1.4
2019-01-29T00:44:41.776Z,1.4
2019-01-29T01:01:15.407Z,1.4
2019-01-29T01:17:49.494Z,1.8
2019-01-29T01:34:23.061Z,1.4
2019-01-29T01:50:56.771Z,1.4
2019-01-29T02:07:30.586Z,1.8
2019-01-29T02:24:04.137Z,1.1
2019-01-29T02:40:37.579Z,1.1
2019-01-29T02:57:11.065Z,1.1
2019-01-29T03:13:44.580Z,1.1
2019-01-29T03:30:18.089Z,1.1
2019-01-29T03:46:51.570Z,0.8
2019-01-29T04:03:24.998Z,1.1
2019-01-29T04:19:58.438Z,1.1
2019-01-29T04:36:31.969Z,1.1
2019-01-29T04:53:05.388Z,1.1
2019-01-29T05:09:38.794Z,0.8
2019-01-29T05:26:11.863Z,0.5
2019-01-29T05:42:45.262Z,0.8
2019-01-29T05:59:18.625Z,0.8
2019-01-29T06:15:51.875Z,0.8
2019-01-29T06:32:24.892Z,0.8
2019-01-29T06:48:58.231Z,0.8
2019-01-29T07:05:31.592Z,0.8
2019-01-29T07:22:05.008Z,1.1
2019-01-29T07:38:39.605Z,1.1
2019-01-29T07:55:12.189Z,1.4
2019-01-29T08:11:45.840Z,1.4
2019-01-29T08:28:19.717Z,1.8
2019-01-29T08:44:54.105Z,1.8
2019-01-29T09:01:27.474Z,1.8
2019-01-29T09:18:01.434Z,2.1
2019-01-29T09:34:35.581Z,2.4
2019-01-29T09:51:09.901Z,2.4
2019-01-29T10:07:44.249Z,2.7
2019-01-29T10:24:18.753Z,2.7
2019-01-29T10:40:53.802Z,3.0
2019-01-29T10:57:28.763Z,3.4
2019-01-29T11:14:03.829Z,4.0
2019-01-29T11:30:38.741Z,3.7
2019-01-29T11:47:14.039Z,4.0
2019-01-29T12:03:49.453Z,4.0
2019-01-29T12:20:24.938Z,4.3
2019-01-29T12:37:00.688Z,4.6
2019-01-29T12:53:36.332Z,4.6
2019-01-29T13:10:12.220Z,5.0
2019-01-29T13:26:48.102Z,5.0
2019-01-29T13:43:23.988Z,4.6
2019-01-29T13:59:59.744Z,4.6
2019-01-29T14:16:35.394Z,4.3
2019-01-29T14:49:46.207Z,4.0
2019-01-29T15:06:21.355Z,4.0
2019-01-29T15:22:56.611Z,3.7
2019-01-29T15:39:31.763Z,3.7
2019-01-29T15:56:06.864Z,3.7
2019-01-29T16:12:42.046Z,3.7
2019-01-29T16:29:17.076Z,3.0
2019-01-29T16:45:51.823Z,2.7
2019-01-29T17:02:26.344Z,2.7
2019-01-29T17:19:00.983Z,2.4
2019-01-29T17:35:35.228Z,2.4
2019-01-29T17:52:09.481Z,2.1
2019-01-29T18:08:49.753Z,1.8
2019-01-29T18:25:17.836Z,1.4
2019-01-29T18:41:51.591Z,1.4
2019-01-29T18:58:25.253Z,1.1
2019-01-29T19:14:58.402Z,1.1
2019-01-29T19:31:31.636Z,0.8
2019-01-29T19:48:04.665Z,0.8
2019-01-29T20:04:37.674Z,0.8
2019-01-29T20:21:10.748Z,1.1
2019-01-29T20:37:44.020Z,1.1
2019-01-29T20:54:17.379Z,1.1
2019-01-29T21:10:50.759Z,1.1
2019-01-29T21:27:23.727Z,0.8
2019-01-29T21:43:56.727Z,0.8
2019-01-29T22:00:29.789Z,0.8
2019-01-29T22:17:02.866Z,0.8
2019-01-29T22:33:35.856Z,0.8
2019-01-29T22:50:08.942Z,0.5
2019-01-29T23:06:41.949Z,0.5
2019-01-29T23:23:15.066Z,0.5
2019-01-29T23:39:47.803Z,0.5
2019-01-29T23:56:20.656Z,0.2
